createdAt,value
2022-11-23T00:00:59.825Z,9.00
2022-11-23T00:06:05.140Z,9.00
2022-11-23T00:11:09.343Z,9.10
2022-11-23T00:16:15.681Z,9.20
2022-11-23T00:21:22.149Z,9.10
2022-11-23T00:26:25.886Z,9.10
2022-11-23T00:31:29.559Z,9.10
2022-11-23T00:36:34.612Z,9.10
2022-11-23T00:41:38.386Z,9.10
2022-11-23T00:46:42.351Z,9.20
2022-11-23T00:51:47.553Z,9.20
2022-11-23T00:56:51.233Z,9.20
2022-11-23T01:01:54.936Z,9.20
2022-11-23T01:06:59.967Z,9.20
2022-11-23T01:12:03.641Z,9.10
2022-11-23T01:17:07.433Z,9.10
2022-11-23T01:22:13.293Z,9.10
2022-11-23T01:27:19.295Z,9.20
2022-11-23T01:32:22.993Z,9.00
2022-11-23T01:37:28.455Z,9.10
2022-11-23T01:42:48.744Z,9.10
2022-11-23T01:47:52.495Z,9.10
2022-11-23T01:52:58.366Z,9.10
2022-11-23T01:58:03.510Z,9.10
2022-11-23T02:03:10.913Z,9.10
2022-11-23T02:08:17.911Z,9.20
2022-11-23T02:13:22.327Z,9.20
2022-11-23T02:18:29.139Z,9.20
2022-11-23T02:23:43.418Z,9.10
2022-11-23T02:28:54.231Z,9.20
2022-11-23T02:33:58.108Z,9.10
2022-11-23T02:39:06.381Z,9.20
2022-11-23T02:44:26.743Z,9.20
2022-11-23T02:49:30.797Z,9.20
2022-11-23T02:54:35.365Z,9.20
2022-11-23T02:59:40.466Z,9.30
2022-11-23T03:04:44.216Z,9.20
2022-11-23T03:09:47.911Z,9.20
2022-11-23T03:14:52.989Z,9.30
2022-11-23T03:19:58.426Z,9.30
2022-11-23T03:25:02.705Z,9.30
2022-11-23T03:30:09.735Z,9.30
2022-11-23T03:35:14.493Z,9.30
2022-11-23T03:40:47.166Z,9.30
2022-11-23T03:46:03.559Z,9.30
2022-11-23T03:51:07.385Z,9.30
2022-11-23T03:56:11.360Z,9.30
2022-11-23T04:01:21.106Z,9.30
2022-11-23T04:06:31.194Z,9.30
2022-11-23T04:11:47.080Z,9.30
2022-11-23T04:16:52.307Z,9.30
2022-11-23T04:21:56.188Z,9.30
2022-11-23T04:27:00.283Z,9.20
2022-11-23T04:32:05.635Z,9.30
2022-11-23T04:37:13.309Z,9.30
2022-11-23T04:42:18.984Z,9.30
2022-11-23T04:47:32.018Z,9.20
2022-11-23T04:52:40.495Z,9.20
2022-11-23T04:57:53.460Z,9.20
2022-11-23T05:03:01.170Z,9.20
2022-11-23T05:08:10.898Z,9.20
2022-11-23T05:13:28.537Z,9.20
2022-11-23T05:18:35.368Z,9.20
2022-11-23T05:23:39.059Z,9.20
2022-11-23T05:28:42.978Z,9.20
2022-11-23T05:33:52.259Z,9.20
2022-11-23T05:39:07.629Z,9.20
2022-11-23T05:44:13.465Z,9.20
2022-11-23T05:49:18.847Z,9.20
2022-11-23T05:54:22.749Z,9.10
2022-11-23T05:59:38.153Z,9.10
2022-11-23T06:04:43.780Z,9.00
2022-11-23T06:09:52.065Z,9.00
2022-11-23T06:14:55.770Z,9.00
2022-11-23T06:20:03.291Z,8.90
2022-11-23T06:25:08.014Z,8.90
2022-11-23T06:30:17.127Z,8.90
2022-11-23T06:35:23.051Z,8.90
2022-11-23T06:40:27.441Z,8.90
2022-11-23T06:45:31.503Z,8.90
2022-11-23T06:50:46.213Z,8.80
2022-11-23T06:55:51.172Z,8.80
2022-11-23T07:01:01.227Z,8.80
2022-11-23T07:06:09.739Z,8.80
2022-11-23T07:11:14.060Z,8.80
2022-11-23T07:16:17.842Z,8.80
2022-11-23T07:21:23.168Z,8.80
2022-11-23T07:26:27.240Z,8.70
2022-11-23T07:31:31.162Z,8.80
2022-11-23T07:36:36.754Z,8.80
2022-11-23T07:41:40.493Z,8.70
2022-11-23T07:46:55.927Z,8.80
2022-11-23T07:52:00.951Z,8.70
2022-11-23T07:57:04.776Z,8.70
2022-11-23T08:02:11.794Z,8.60
2022-11-23T08:07:16.983Z,8.60
2022-11-23T08:12:20.700Z,8.60
2022-11-23T08:17:24.371Z,8.50
2022-11-23T08:22:29.355Z,8.50
2022-11-23T08:27:33.102Z,8.60
2022-11-23T08:32:37.285Z,8.50
2022-11-23T08:37:43.103Z,8.50
2022-11-23T08:42:47.834Z,8.50
2022-11-23T08:47:53.066Z,8.50
2022-11-23T08:52:59.137Z,8.50
2022-11-23T08:58:02.974Z,8.50
2022-11-23T09:03:06.626Z,8.50
2022-11-23T09:08:11.856Z,8.60
2022-11-23T09:13:15.636Z,8.60
2022-11-23T09:18:19.464Z,8.60
2022-11-23T09:23:26.977Z,8.70
2022-11-23T09:28:31.476Z,8.70
2022-11-23T09:33:35.216Z,8.70
2022-11-23T09:38:57.291Z,8.80
2022-11-23T09:44:05.603Z,8.70
2022-11-23T09:49:16.319Z,8.80
2022-11-23T09:54:29.456Z,9.00
2022-11-23T09:59:41.055Z,9.10
2022-11-23T10:04:45.428Z,9.10
2022-11-23T10:09:58.648Z,9.20
2022-11-23T10:15:10.867Z,9.30
2022-11-23T10:20:27.494Z,9.40
2022-11-23T10:25:39.250Z,9.50
2022-11-23T10:30:43.617Z,9.50
2022-11-23T10:35:47.352Z,9.50
2022-11-23T10:41:02.374Z,9.60
2022-11-23T10:46:28.086Z,9.60
2022-11-23T10:51:35.043Z,9.60
2022-11-23T10:56:48.810Z,9.70
2022-11-23T11:02:01.884Z,9.80
2022-11-23T11:07:24.124Z,9.80
2022-11-23T11:12:31.515Z,9.80
2022-11-23T11:17:36.344Z,9.80
2022-11-23T11:22:46.262Z,9.80
2022-11-23T11:27:54.458Z,9.90
2022-11-23T11:33:05.024Z,10.00
2022-11-23T11:38:17.407Z,9.90
2022-11-23T11:43:37.623Z,10.00
2022-11-23T11:48:49.058Z,10.00
2022-11-23T11:53:58.599Z,10.10
2022-11-23T11:59:12.007Z,10.20
2022-11-23T12:04:21.402Z,10.30
2022-11-23T12:09:31.808Z,10.40
2022-11-23T12:14:38.305Z,10.40
2022-11-23T12:19:49.889Z,10.40
2022-11-23T12:25:11.702Z,10.50
2022-11-23T12:30:26.147Z,10.40
2022-11-23T12:35:58.951Z,10.50
2022-11-23T12:41:17.538Z,10.50
2022-11-23T12:46:29.866Z,10.60
2022-11-23T12:51:42.344Z,10.70
2022-11-23T12:56:56.642Z,10.70
2022-11-23T13:02:04.871Z,10.60
2022-11-23T13:07:47.577Z,10.60
2022-11-23T13:13:22.304Z,10.60
2022-11-23T13:18:45.023Z,10.50
2022-11-23T13:23:48.827Z,10.50
2022-11-23T13:28:53.968Z,10.50
2022-11-23T13:34:00.265Z,10.40
2022-11-23T13:39:04.962Z,10.40
2022-11-23T13:44:13.548Z,10.20
2022-11-23T13:49:33.056Z,10.10
2022-11-23T13:54:38.334Z,10.00
2022-11-23T13:59:41.993Z,9.90
2022-11-23T14:04:48.323Z,9.90
2022-11-23T14:09:55.587Z,9.80
2022-11-23T14:15:07.420Z,9.80
2022-11-23T14:20:54.353Z,9.70
2022-11-23T14:26:13.834Z,9.70
2022-11-23T14:31:28.795Z,9.60
2022-11-23T14:36:42.508Z,9.60
2022-11-23T14:41:51.733Z,9.50
2022-11-23T14:47:02.538Z,9.50
2022-11-23T14:52:08.055Z,9.50
2022-11-23T14:57:15.224Z,9.50
2022-11-23T15:02:19.843Z,9.40
2022-11-23T15:07:28.915Z,9.40
2022-11-23T15:12:43.372Z,9.40
2022-11-23T15:17:53.136Z,9.40
2022-11-23T15:22:58.225Z,9.30
2022-11-23T15:28:01.924Z,9.30
2022-11-23T15:33:12.009Z,9.30
2022-11-23T15:38:23.382Z,9.30
2022-11-23T15:43:28.081Z,9.30
2022-11-23T15:48:33.895Z,9.30
2022-11-23T15:53:50.913Z,9.30
2022-11-23T15:58:55.917Z,9.30
2022-11-23T16:04:03.538Z,9.30
2022-11-23T16:09:53.405Z,9.30
2022-11-23T16:14:59.075Z,9.30
2022-11-23T16:20:05.966Z,9.30
2022-11-23T16:25:25.985Z,9.20
2022-11-23T16:30:38.845Z,9.30
2022-11-23T16:35:42.848Z,9.20
2022-11-23T16:40:49.347Z,9.20
2022-11-23T16:45:53.214Z,9.20
2022-11-23T16:50:58.307Z,9.20
2022-11-23T16:56:04.027Z,9.20
2022-11-23T17:01:10.946Z,9.20
2022-11-23T17:06:15.535Z,9.20
2022-11-23T17:11:23.288Z,9.20
2022-11-23T17:16:27.762Z,9.20
2022-11-23T17:21:31.783Z,9.20
2022-11-23T17:26:38.927Z,9.20
2022-11-23T17:31:43.578Z,9.20
2022-11-23T17:36:50.684Z,9.20
2022-11-23T17:42:01.552Z,9.10
2022-11-23T17:47:15.829Z,9.10
2022-11-23T17:52:19.585Z,9.10
2022-11-23T17:57:26.859Z,9.00
2022-11-23T18:02:30.626Z,9.00
2022-11-23T18:07:34.359Z,9.00
2022-11-23T18:12:39.745Z,8.90
2022-11-23T18:17:43.508Z,8.90
2022-11-23T18:22:47.223Z,8.90
2022-11-23T18:27:54.276Z,8.80
2022-11-23T18:32:58.084Z,8.80
2022-11-23T18:38:01.735Z,8.80
2022-11-23T18:43:06.728Z,8.80
2022-11-23T18:48:10.499Z,8.80
2022-11-23T18:53:14.159Z,8.80
2022-11-23T18:58:19.167Z,8.80
2022-11-23T19:03:22.959Z,8.70
2022-11-23T19:08:26.608Z,8.80
2022-11-23T19:13:31.681Z,8.80
2022-11-23T19:18:35.378Z,8.80
2022-11-23T19:23:39.140Z,8.70
2022-11-23T19:28:45.719Z,8.80
2022-11-23T19:33:50.697Z,8.70
2022-11-23T19:38:56.442Z,8.80
2022-11-23T19:44:02.234Z,8.80
2022-11-23T19:49:07.183Z,8.80
2022-11-23T19:54:10.832Z,8.80
2022-11-23T19:59:15.895Z,8.80
2022-11-23T20:04:19.594Z,8.80
2022-11-23T20:09:24.069Z,8.80
2022-11-23T20:14:29.246Z,8.80
2022-11-23T20:19:33.110Z,8.80
2022-11-23T20:24:36.981Z,8.80
2022-11-23T20:29:41.970Z,8.90
2022-11-23T20:34:45.667Z,8.80
2022-11-23T20:39:49.301Z,8.90
2022-11-23T20:44:54.312Z,8.80
2022-11-23T20:49:57.977Z,8.90
2022-11-23T20:55:01.655Z,8.90
2022-11-23T21:00:08.231Z,8.80
2022-11-23T21:05:12.102Z,8.90
2022-11-23T21:10:30.268Z,8.90
2022-11-23T21:15:35.404Z,8.90
2022-11-23T21:20:39.938Z,8.90
2022-11-23T21:25:43.783Z,8.90
2022-11-23T21:30:48.821Z,8.90
2022-11-23T21:35:52.481Z,8.90
2022-11-23T21:40:58.357Z,8.90
2022-11-23T21:46:05.850Z,8.90
2022-11-23T21:51:12.453Z,8.90
2022-11-23T21:56:19.859Z,9.00
2022-11-23T22:01:26.867Z,9.00
2022-11-23T22:06:30.790Z,9.00
2022-11-23T22:11:36.054Z,9.00
2022-11-23T22:16:42.647Z,9.00
2022-11-23T22:21:47.150Z,9.10
2022-11-23T22:26:50.904Z,9.00
2022-11-23T22:31:56.092Z,9.10
2022-11-23T22:36:59.904Z,9.00
2022-11-23T22:42:03.767Z,9.10
2022-11-23T22:47:08.778Z,9.10
2022-11-23T22:52:12.776Z,9.10
2022-11-23T22:57:16.507Z,9.00
2022-11-23T23:02:22.317Z,9.00
2022-11-23T23:07:26.254Z,9.00
2022-11-23T23:12:29.973Z,9.00
2022-11-23T23:17:35.402Z,9.00
2022-11-23T23:22:39.978Z,9.00
2022-11-23T23:27:43.717Z,9.00
2022-11-23T23:32:49.267Z,9.00
2022-11-23T23:37:53.581Z,9.00
2022-11-23T23:42:59.079Z,8.90
2022-11-23T23:48:04.227Z,8.90
2022-11-23T23:53:07.987Z,8.90
2022-11-23T23:58:11.735Z,8.90
